createdAt,value
2023-01-05T00:00:13.297Z,96.9
2023-01-05T00:01:16.905Z,96.9
2023-01-05T00:02:26.124Z,96.8
2023-01-05T00:03:29.288Z,96.8
2023-01-05T00:04:32.720Z,96.7
2023-01-05T00:05:35.490Z,96.3
2023-01-05T00:06:38.699Z,96.3
2023-01-05T00:07:42.826Z,96.4
2023-01-05T00:08:45.942Z,96.5
2023-01-05T00:09:49.296Z,96.5
2023-01-05T00:10:52.035Z,96.8
2023-01-05T00:11:54.213Z,96.7
2023-01-05T00:12:58.066Z,96.9
2023-01-05T00:14:00.568Z,96.7
2023-01-05T00:15:04.472Z,96.7
2023-01-05T00:16:08.408Z,96.9
2023-01-05T00:17:11.797Z,97.1
2023-01-05T00:18:15.918Z,97.3
2023-01-05T00:19:19.504Z,97.5
2023-01-05T00:20:22.739Z,97.7
2023-01-05T00:21:25.607Z,97.8
2023-01-05T00:22:28.958Z,97.6
2023-01-05T00:23:31.945Z,97.7
2023-01-05T00:24:34.819Z,97.6
2023-01-05T00:25:37.780Z,97.7
2023-01-05T00:26:41.003Z,97.7
2023-01-05T00:27:44.097Z,97.9
2023-01-05T00:28:46.925Z,98
2023-01-05T00:29:49.988Z,98
2023-01-05T00:30:53.437Z,98
2023-01-05T00:31:56.363Z,97.9
2023-01-05T00:32:59.882Z,97.9
2023-01-05T00:34:03.697Z,97.9
2023-01-05T00:35:07.121Z,98.1
2023-01-05T00:36:10.682Z,98.2
2023-01-05T00:37:13.820Z,98.3
2023-01-05T00:38:16.824Z,98.3
2023-01-05T00:39:19.642Z,98.5
2023-01-05T00:40:23.403Z,98.6
2023-01-05T00:41:26.481Z,98.7
2023-01-05T00:42:30.002Z,98.8
2023-01-05T00:43:33.099Z,98.7
2023-01-05T00:44:36.609Z,98.8
2023-01-05T00:45:39.273Z,99
2023-01-05T00:46:42.259Z,99.4
2023-01-05T00:47:45.949Z,99.4
2023-01-05T00:48:48.766Z,99.3
2023-01-05T00:49:52.894Z,99.3
2023-01-05T00:50:56.574Z,99.3
2023-01-05T00:51:59.360Z,99.2
2023-01-05T00:53:02.107Z,99.2
2023-01-05T00:54:05.893Z,99.1
2023-01-05T00:55:08.916Z,99.1
2023-01-05T00:56:11.978Z,99.2
2023-01-05T00:57:15.378Z,99.3
2023-01-05T00:58:18.168Z,99.3
2023-01-05T00:59:21.231Z,98.9
2023-01-05T01:00:24.632Z,98.7
2023-01-05T01:01:28.359Z,98.7
2023-01-05T01:02:32.453Z,98.7
2023-01-05T01:03:36.201Z,98.6
2023-01-05T01:04:39.739Z,98.5
2023-01-05T01:05:43.660Z,98.4
2023-01-05T01:06:46.088Z,98.5
2023-01-05T01:07:48.884Z,98.4
2023-01-05T01:08:51.933Z,98.5
2023-01-05T01:09:55.592Z,98.3
2023-01-05T01:10:58.384Z,98.1
2023-01-05T01:12:01.125Z,98.1
2023-01-05T01:13:04.039Z,97.8
2023-01-05T01:14:06.181Z,97.3
2023-01-05T01:15:09.276Z,96.5
2023-01-05T01:16:12.505Z,96.3
2023-01-05T01:17:16.074Z,96
2023-01-05T01:18:18.535Z,95.8
2023-01-05T01:19:21.529Z,95.7
2023-01-05T01:20:25.285Z,95.7
2023-01-05T01:21:29.441Z,95.5
2023-01-05T01:22:32.524Z,95.5
2023-01-05T01:23:35.567Z,95.2
2023-01-05T01:24:38.634Z,94.9
2023-01-05T01:25:41.758Z,94.8
2023-01-05T01:26:44.860Z,94.8
2023-01-05T01:27:47.587Z,94.4
2023-01-05T01:28:50.684Z,94.4
2023-01-05T01:29:54.323Z,94.4
2023-01-05T01:30:57.429Z,93.7
2023-01-05T01:32:00.890Z,93
2023-01-05T01:33:03.995Z,92.9
2023-01-05T01:34:07.146Z,92.9
2023-01-05T01:35:10.522Z,92.7
2023-01-05T01:36:14.068Z,92.9
2023-01-05T01:37:17.889Z,92.7
2023-01-05T01:38:20.067Z,91.8
2023-01-05T01:39:23.063Z,91.8
2023-01-05T01:40:26.125Z,91.4
2023-01-05T01:41:28.663Z,91.1
2023-01-05T01:42:31.962Z,90.9
2023-01-05T01:43:35.489Z,90.6
2023-01-05T01:44:38.550Z,90.1
2023-01-05T01:45:41.763Z,89.8
2023-01-05T01:46:44.640Z,89.2
2023-01-05T01:47:47.354Z,88.7
2023-01-05T01:48:49.782Z,87.5
2023-01-05T01:49:52.869Z,87
2023-01-05T01:50:56.034Z,87.3
2023-01-05T01:51:58.356Z,87.1
2023-01-05T01:53:02.557Z,87.2
2023-01-05T01:54:05.460Z,86.9
2023-01-05T01:55:08.217Z,87.4
2023-01-05T01:56:11.221Z,87.9
2023-01-05T01:57:14.954Z,87.9
2023-01-05T01:58:17.835Z,87.8
2023-01-05T01:59:21.192Z,87.4
2023-01-05T02:00:24.196Z,87.2
2023-01-05T02:01:27.334Z,87.9
2023-01-05T02:02:31.267Z,87.7
2023-01-05T02:03:34.709Z,87
2023-01-05T02:04:38.444Z,87
2023-01-05T02:05:41.061Z,87
2023-01-05T02:06:43.882Z,87
2023-01-05T02:07:47.817Z,86.6
2023-01-05T02:08:51.973Z,86.9
2023-01-05T02:09:55.609Z,86.4
2023-01-05T02:10:58.419Z,87.1
2023-01-05T02:12:01.602Z,87.1
2023-01-05T02:13:04.593Z,87.4
2023-01-05T02:14:07.701Z,87.7
2023-01-05T02:15:10.967Z,88.2
2023-01-05T02:16:13.426Z,87.5
2023-01-05T02:17:16.353Z,86.8
2023-01-05T02:18:19.360Z,85.5
2023-01-05T02:19:22.539Z,84.2
2023-01-05T02:20:26.035Z,84.2
2023-01-05T02:21:28.481Z,83.7
2023-01-05T02:22:31.683Z,83.4
2023-01-05T02:23:34.323Z,83.7
2023-01-05T02:24:38.131Z,84.1
2023-01-05T02:25:40.944Z,83
2023-01-05T02:26:44.131Z,83.9
2023-01-05T02:27:47.135Z,83.1
2023-01-05T02:28:49.307Z,83.5
2023-01-05T02:29:52.413Z,83.9
2023-01-05T02:30:55.184Z,82.4
2023-01-05T02:31:58.714Z,82.7
2023-01-05T02:33:02.076Z,82.6
2023-01-05T02:34:04.498Z,83.2
2023-01-05T02:35:07.935Z,83
2023-01-05T02:36:11.042Z,82.4
2023-01-05T02:37:14.153Z,81.3
2023-01-05T02:38:17.225Z,81.6
2023-01-05T02:39:20.290Z,81.2
2023-01-05T02:40:24.131Z,81.6
2023-01-05T02:41:27.192Z,82
2023-01-05T02:42:30.964Z,81.3
2023-01-05T02:43:33.979Z,81.5
2023-01-05T02:44:36.133Z,81.3
2023-01-05T02:45:39.944Z,81.1
2023-01-05T02:46:42.928Z,81.2
2023-01-05T02:47:45.472Z,81.4
2023-01-05T02:48:48.213Z,80.4
2023-01-05T02:49:50.642Z,80.9
2023-01-05T02:50:53.711Z,81.2
2023-01-05T02:51:57.075Z,81.5
2023-01-05T02:52:59.573Z,82.2
2023-01-05T02:54:02.987Z,83
2023-01-05T02:55:06.577Z,81.7
2023-01-05T02:56:10.554Z,81.4
2023-01-05T02:57:13.658Z,81.3
2023-01-05T02:58:16.930Z,80.9
2023-01-05T02:59:20.046Z,81.2
2023-01-05T03:00:22.867Z,81.4
2023-01-05T03:01:26.268Z,80.4
2023-01-05T03:02:30.908Z,80.7
2023-01-05T03:03:35.291Z,80.9
2023-01-05T03:04:38.884Z,81
2023-01-05T03:05:41.331Z,81.3
2023-01-05T03:06:44.465Z,81.2
2023-01-05T03:07:47.817Z,81.3
2023-01-05T03:08:50.900Z,81.1
2023-01-05T03:09:53.879Z,82
2023-01-05T03:10:56.646Z,81.3
2023-01-05T03:12:00.740Z,81.4
2023-01-05T03:13:03.598Z,81.9
2023-01-05T03:14:06.716Z,82.3
2023-01-05T03:15:10.347Z,82.1
2023-01-05T03:16:13.881Z,80.6
2023-01-05T03:17:16.395Z,80.8
2023-01-05T03:18:19.754Z,80.7
2023-01-05T03:19:22.629Z,80.2
2023-01-05T03:20:25.755Z,80.6
2023-01-05T03:21:28.873Z,81.1
2023-01-05T03:22:32.242Z,79.8
2023-01-05T03:23:34.966Z,80.3
2023-01-05T03:24:38.348Z,80
2023-01-05T03:25:41.464Z,80.5
2023-01-05T03:26:44.223Z,80.8
2023-01-05T03:27:48.329Z,80.4
2023-01-05T03:28:51.386Z,80.8
2023-01-05T03:29:54.383Z,80.5
2023-01-05T03:30:57.424Z,80.7
2023-01-05T03:32:00.455Z,80.9
2023-01-05T03:33:02.641Z,81
2023-01-05T03:34:05.441Z,81.5
2023-01-05T03:35:09.155Z,81.7
2023-01-05T03:36:12.567Z,82.2
2023-01-05T03:37:15.376Z,82
2023-01-05T03:38:20.071Z,82.5
2023-01-05T03:39:23.322Z,82.6
2023-01-05T03:40:26.084Z,82.3
2023-01-05T03:41:29.264Z,82.7
2023-01-05T03:42:32.120Z,83.5
2023-01-05T03:43:36.224Z,83.1
2023-01-05T03:44:39.597Z,82.9
2023-01-05T03:45:42.031Z,83
2023-01-05T03:46:45.276Z,83
2023-01-05T03:47:48.875Z,82.6
2023-01-05T03:48:51.967Z,82.6
2023-01-05T03:49:55.684Z,82.6
2023-01-05T03:50:58.397Z,82.7
2023-01-05T03:52:02.125Z,82.5
2023-01-05T03:53:05.185Z,82.1
2023-01-05T03:54:08.480Z,82.3
2023-01-05T03:55:11.350Z,81.9
2023-01-05T03:56:14.548Z,82.2
2023-01-05T03:57:17.394Z,83
2023-01-05T03:58:20.788Z,82.2
2023-01-05T03:59:24.612Z,81.9
2023-01-05T04:00:27.069Z,81.7
2023-01-05T04:01:30.869Z,81.8
2023-01-05T04:02:35.646Z,82.4
2023-01-05T04:03:39.298Z,82
2023-01-05T04:04:42.614Z,81.9
2023-01-05T04:05:46.061Z,81.9
2023-01-05T04:06:49.236Z,82.5
2023-01-05T04:07:52.039Z,82.4
2023-01-05T04:08:55.769Z,81.5
2023-01-05T04:09:58.837Z,81.4
2023-01-05T04:11:01.260Z,81.8
2023-01-05T04:12:03.734Z,82.2
2023-01-05T04:13:06.805Z,82.2
2023-01-05T04:14:10.189Z,81.9
2023-01-05T04:15:14.324Z,82.3
2023-01-05T04:16:17.324Z,81.6
2023-01-05T04:17:19.995Z,81.6
2023-01-05T04:18:23.086Z,82.5
2023-01-05T04:19:25.538Z,82.2
2023-01-05T04:20:28.957Z,81.9
2023-01-05T04:21:32.248Z,80.9
2023-01-05T04:22:34.426Z,81.1
2023-01-05T04:23:37.736Z,81
2023-01-05T04:24:40.929Z,80.9
2023-01-05T04:25:43.980Z,80.8
2023-01-05T04:26:46.777Z,80.7
2023-01-05T04:27:49.625Z,80.5
2023-01-05T04:28:52.371Z,80.4
2023-01-05T04:29:55.750Z,80.1
2023-01-05T04:31:00.182Z,80.4
2023-01-05T04:32:03.856Z,80.3
2023-01-05T04:33:06.926Z,80.8
2023-01-05T04:34:10.979Z,80.8
2023-01-05T04:35:13.760Z,80.9
2023-01-05T04:36:16.875Z,80.2
2023-01-05T04:37:19.371Z,80.9
2023-01-05T04:38:22.999Z,80.6
2023-01-05T04:39:26.059Z,80.3
2023-01-05T04:40:28.858Z,80.4
2023-01-05T04:41:31.697Z,80.4
2023-01-05T04:42:35.077Z,80.6
2023-01-05T04:43:38.467Z,79.7
2023-01-05T04:44:41.276Z,79.9
2023-01-05T04:45:44.351Z,79.7
2023-01-05T04:46:48.777Z,79.3
2023-01-05T04:47:51.794Z,79.5
2023-01-05T04:48:55.539Z,79.5
2023-01-05T04:49:58.881Z,79.5
2023-01-05T04:51:02.081Z,79.4
2023-01-05T04:52:05.272Z,79.3
2023-01-05T04:53:08.060Z,79.2
2023-01-05T04:54:11.142Z,79.2
2023-01-05T04:55:14.221Z,80
2023-01-05T04:56:17.257Z,79.2
2023-01-05T04:57:20.065Z,79.3
2023-01-05T04:58:22.559Z,80.2
2023-01-05T04:59:25.886Z,79.9
2023-01-05T05:00:29.616Z,80.1
2023-01-05T05:01:33.613Z,80.2
2023-01-05T05:02:38.577Z,80.3
2023-01-05T05:03:42.588Z,79.6
2023-01-05T05:04:45.785Z,80.1
2023-01-05T05:05:48.519Z,80.3
2023-01-05T05:06:51.702Z,80.4
2023-01-05T05:07:55.422Z,79.9
2023-01-05T05:08:58.609Z,79.6
2023-01-05T05:10:01.676Z,79.1
2023-01-05T05:11:05.084Z,79.4
2023-01-05T05:12:07.783Z,78.5
2023-01-05T05:13:10.501Z,77.7
2023-01-05T05:14:13.884Z,77.9
2023-01-05T05:15:16.955Z,78.5
2023-01-05T05:16:20.676Z,78.4
2023-01-05T05:17:24.563Z,77.6
2023-01-05T05:18:28.638Z,76.8
2023-01-05T05:19:32.049Z,77
2023-01-05T05:20:35.811Z,77.8
2023-01-05T05:21:39.570Z,77.2
2023-01-05T05:22:42.564Z,76.7
2023-01-05T05:23:45.099Z,76.9
2023-01-05T05:24:48.269Z,77.2
2023-01-05T05:25:51.687Z,77.2
2023-01-05T05:26:54.843Z,77.3
2023-01-05T05:27:57.924Z,77.3
2023-01-05T05:29:00.685Z,77.7
2023-01-05T05:30:04.170Z,78.2
2023-01-05T05:31:07.795Z,78.2
2023-01-05T05:32:09.751Z,78.4
2023-01-05T05:33:13.180Z,79.1
2023-01-05T05:34:17.345Z,79.2
2023-01-05T05:35:20.450Z,78.8
2023-01-05T05:36:24.106Z,78.9
2023-01-05T05:37:27.115Z,78.6
2023-01-05T05:38:30.191Z,78.8
2023-01-05T05:39:33.349Z,79
2023-01-05T05:40:36.393Z,78.6
2023-01-05T05:41:38.905Z,79
2023-01-05T05:42:41.975Z,79
2023-01-05T05:43:45.324Z,79.7
2023-01-05T05:44:47.787Z,79.2
2023-01-05T05:45:52.202Z,79
2023-01-05T05:46:55.998Z,79.4
2023-01-05T05:47:59.260Z,78.9
2023-01-05T05:49:02.091Z,78.8
2023-01-05T05:50:06.371Z,79
2023-01-05T05:51:08.544Z,79.1
2023-01-05T05:52:11.725Z,78.8
2023-01-05T05:53:14.891Z,79.5
2023-01-05T05:54:18.256Z,78.5
2023-01-05T05:55:21.613Z,78.5
2023-01-05T05:56:24.610Z,78.7
2023-01-05T05:57:27.717Z,79.2
2023-01-05T05:58:30.730Z,79.1
2023-01-05T05:59:33.728Z,79.1
2023-01-05T06:00:36.766Z,79.4
2023-01-05T06:01:40.299Z,79.5
2023-01-05T06:02:44.368Z,79.3
2023-01-05T06:03:48.420Z,78.5
2023-01-05T06:04:52.143Z,78.5
2023-01-05T06:05:56.005Z,78.8
2023-01-05T06:06:59.001Z,78.5
2023-01-05T06:08:01.803Z,78.2
2023-01-05T06:09:05.392Z,78.3
2023-01-05T06:10:09.036Z,79.1
2023-01-05T06:11:13.655Z,79.3
2023-01-05T06:12:17.624Z,79.6
2023-01-05T06:13:21.529Z,79.6
2023-01-05T06:14:24.711Z,78.8
2023-01-05T06:15:28.016Z,78.7
2023-01-05T06:16:32.295Z,78.6
2023-01-05T06:17:35.970Z,79
2023-01-05T06:18:38.733Z,78.3
2023-01-05T06:19:42.415Z,78.5
2023-01-05T06:20:45.870Z,79
2023-01-05T06:21:49.985Z,78.8
2023-01-05T06:22:53.644Z,79.2
2023-01-05T06:23:56.668Z,79
2023-01-05T06:24:59.900Z,78.9
2023-01-05T06:26:03.185Z,79.2
2023-01-05T06:27:06.590Z,78.8
2023-01-05T06:28:09.611Z,79
2023-01-05T06:29:12.732Z,79.2
2023-01-05T06:30:15.967Z,79
2023-01-05T06:31:19.791Z,79
2023-01-05T06:32:22.420Z,79.2
2023-01-05T06:33:25.610Z,79
2023-01-05T06:34:29.057Z,78.9
2023-01-05T06:35:32.714Z,79.2
2023-01-05T06:36:35.864Z,79.8
2023-01-05T06:37:39.946Z,80.2
2023-01-05T06:38:42.782Z,80.2
2023-01-05T06:39:46.130Z,80.3
2023-01-05T06:40:49.008Z,80.2
2023-01-05T06:41:51.472Z,80.3
2023-01-05T06:42:55.098Z,79.9
2023-01-05T06:43:59.121Z,80
2023-01-05T06:45:01.938Z,79.8
2023-01-05T06:46:05.967Z,79.9
2023-01-05T06:47:08.425Z,80.2
2023-01-05T06:48:11.245Z,80.5
2023-01-05T06:49:14.664Z,80.7
2023-01-05T06:50:18.050Z,80.9
2023-01-05T06:51:21.444Z,81
2023-01-05T06:52:24.568Z,81.5
2023-01-05T06:53:28.401Z,81.9
2023-01-05T06:54:31.195Z,81.4
2023-01-05T06:55:33.951Z,81.5
2023-01-05T06:56:37.687Z,81.5
2023-01-05T06:57:40.474Z,81.7
2023-01-05T06:58:44.130Z,82.1
2023-01-05T06:59:47.463Z,81.8
2023-01-05T07:00:50.803Z,81.9
2023-01-05T07:01:54.799Z,82.3
2023-01-05T07:02:58.163Z,82.4
2023-01-05T07:04:01.580Z,82.1
2023-01-05T07:05:05.389Z,81.8
2023-01-05T07:06:15.968Z,81.7
2023-01-05T07:07:19.393Z,81.5
2023-01-05T07:08:22.727Z,81.3
2023-01-05T07:09:26.970Z,81.3
2023-01-05T07:10:30.454Z,81.5
2023-01-05T07:11:33.324Z,81.1
2023-01-05T07:12:36.495Z,81
2023-01-05T07:13:39.854Z,81
2023-01-05T07:14:43.219Z,81.1
2023-01-05T07:15:46.462Z,80.6
2023-01-05T07:16:50.183Z,80.4
2023-01-05T07:17:53.433Z,80.3
2023-01-05T07:18:56.848Z,80
2023-01-05T07:20:00.081Z,80.2
2023-01-05T07:21:03.511Z,79.8
2023-01-05T07:22:06.704Z,80
2023-01-05T07:23:09.530Z,79.8
2023-01-05T07:24:12.607Z,79.2
2023-01-05T07:25:16.776Z,79.2
2023-01-05T07:26:20.079Z,79.3
2023-01-05T07:27:23.825Z,79
2023-01-05T07:28:26.937Z,78.9
2023-01-05T07:29:30.000Z,78.8
2023-01-05T07:30:33.056Z,78.3
2023-01-05T07:31:36.551Z,78
2023-01-05T07:32:39.684Z,78.7
2023-01-05T07:33:43.042Z,78.2
2023-01-05T07:34:56.653Z,78.3
2023-01-05T07:36:00.048Z,78.3
2023-01-05T07:37:02.900Z,78.3
2023-01-05T07:38:06.042Z,78.7
2023-01-05T07:39:09.809Z,78.1
2023-01-05T07:40:12.887Z,78
2023-01-05T07:41:16.683Z,77.9
2023-01-05T07:42:19.208Z,78
2023-01-05T07:43:22.642Z,77.9
2023-01-05T07:44:25.994Z,78
2023-01-05T07:45:29.533Z,78.2
2023-01-05T07:46:32.475Z,78.9
2023-01-05T07:47:36.264Z,78.7
2023-01-05T07:48:39.519Z,78.4
2023-01-05T07:49:43.211Z,78.5
2023-01-05T07:50:46.577Z,78.7
2023-01-05T07:51:49.916Z,78.6
2023-01-05T07:52:53.452Z,78.5
2023-01-05T07:53:57.543Z,78.6
2023-01-05T07:55:00.553Z,79.3
2023-01-05T07:56:03.996Z,79.1
2023-01-05T07:57:08.109Z,78.8
2023-01-05T07:58:10.928Z,78.9
2023-01-05T07:59:14.294Z,79.5
2023-01-05T08:00:17.375Z,79
2023-01-05T08:01:20.594Z,78.7
2023-01-05T08:02:24.561Z,78.9
2023-01-05T08:03:38.783Z,79.1
2023-01-05T08:04:42.181Z,78.8
2023-01-05T08:05:45.430Z,79.2
2023-01-05T08:06:48.778Z,78.9
2023-01-05T08:07:52.522Z,78.5
2023-01-05T08:08:55.059Z,78.7
2023-01-05T08:09:58.187Z,79.2
2023-01-05T08:11:01.164Z,79.6
2023-01-05T08:12:04.552Z,80
2023-01-05T08:13:08.692Z,79.6
2023-01-05T08:14:11.583Z,79.6
2023-01-05T08:15:14.930Z,79.7
2023-01-05T08:16:18.164Z,79.6
2023-01-05T08:17:21.678Z,79.7
2023-01-05T08:18:24.877Z,80.1
2023-01-05T08:19:27.388Z,79.7
2023-01-05T08:20:30.480Z,79.7
2023-01-05T08:21:33.915Z,79.4
2023-01-05T08:22:36.486Z,79.3
2023-01-05T08:23:39.213Z,79.4
2023-01-05T08:24:42.201Z,79.5
2023-01-05T08:25:45.155Z,79.6
2023-01-05T08:26:49.079Z,79.5
2023-01-05T08:27:52.659Z,79.6
2023-01-05T08:28:56.766Z,79.5
2023-01-05T08:29:59.627Z,79.9
2023-01-05T08:31:02.462Z,79.4
2023-01-05T08:32:06.181Z,79.3
2023-01-05T08:33:10.126Z,79.4
2023-01-05T08:34:13.142Z,80
2023-01-05T08:35:15.976Z,79.6
2023-01-05T08:36:19.705Z,79.5
2023-01-05T08:37:22.466Z,79.6
2023-01-05T08:38:26.259Z,79.1
2023-01-05T08:39:29.543Z,78.8
2023-01-05T08:40:32.765Z,79.1
2023-01-05T08:41:35.604Z,79
2023-01-05T08:42:39.278Z,79.6
2023-01-05T08:43:43.107Z,79.3
2023-01-05T08:44:47.207Z,79.6
2023-01-05T08:45:50.248Z,79.3
2023-01-05T08:46:53.404Z,79
2023-01-05T08:47:57.002Z,78.8
2023-01-05T08:49:00.388Z,78.4
2023-01-05T08:50:03.548Z,78.1
2023-01-05T08:51:07.305Z,78.1
2023-01-05T08:52:10.981Z,78.1
2023-01-05T08:53:13.492Z,78.9
2023-01-05T08:54:16.552Z,78.2
2023-01-05T08:55:18.988Z,78
2023-01-05T08:56:21.842Z,77.8
2023-01-05T08:57:25.210Z,76.4
2023-01-05T08:58:28.278Z,76.4
2023-01-05T08:59:31.799Z,76.1
2023-01-05T09:00:35.981Z,75.9
2023-01-05T09:01:40.632Z,75.4
2023-01-05T09:02:45.061Z,75.6
2023-01-05T09:03:49.090Z,75.6
2023-01-05T09:04:52.192Z,75.7
2023-01-05T09:05:55.340Z,74.1
2023-01-05T09:06:58.445Z,73.6
2023-01-05T09:08:02.221Z,73.4
2023-01-05T09:09:05.264Z,73.3
2023-01-05T09:10:08.760Z,73.5
2023-01-05T09:11:12.114Z,73.2
2023-01-05T09:12:15.628Z,72.9
2023-01-05T09:13:18.337Z,73.4
2023-01-05T09:14:21.709Z,72.9
2023-01-05T09:15:25.178Z,73.9
2023-01-05T09:17:09.865Z,72.9
2023-01-05T09:18:13.699Z,72.8
2023-01-05T09:19:17.474Z,73.3
2023-01-05T09:20:20.909Z,72.9
2023-01-05T09:21:24.626Z,73
2023-01-05T09:22:28.042Z,72.8
2023-01-05T09:23:31.763Z,73.2
2023-01-05T09:24:35.517Z,72.4
2023-01-05T09:25:38.520Z,72
2023-01-05T09:26:41.966Z,71.4
2023-01-05T09:27:45.147Z,71.3
2023-01-05T09:28:48.618Z,70
2023-01-05T09:29:51.435Z,70.7
2023-01-05T09:30:54.577Z,70.3
2023-01-05T09:31:58.332Z,70.4
2023-01-05T09:33:01.175Z,70.7
2023-01-05T09:34:04.181Z,70.5
2023-01-05T09:35:07.273Z,70.7
2023-01-05T09:36:10.301Z,70.7
2023-01-05T09:37:14.087Z,70.9
2023-01-05T09:38:16.988Z,70.8
2023-01-05T09:39:19.727Z,70.7
2023-01-05T09:40:23.034Z,70.7
2023-01-05T09:41:25.849Z,71.4
2023-01-05T09:42:28.404Z,70.6
2023-01-05T09:43:32.148Z,70.3
2023-01-05T09:44:35.934Z,69.9
2023-01-05T09:45:39.480Z,69.5
2023-01-05T09:46:43.643Z,68.8
2023-01-05T09:47:48.375Z,67.8
2023-01-05T09:48:51.470Z,67.9
2023-01-05T09:49:55.167Z,67.6
2023-01-05T09:50:58.604Z,66.9
2023-01-05T09:52:02.742Z,66.5
2023-01-05T09:53:05.524Z,65.9
2023-01-05T09:54:08.878Z,66.1
2023-01-05T09:55:12.256Z,66.1
2023-01-05T09:57:11.359Z,65.5
2023-01-05T09:58:15.358Z,66.7
2023-01-05T09:59:18.568Z,65.3
2023-01-05T10:00:22.604Z,66.1
2023-01-05T10:01:25.517Z,66.2
2023-01-05T10:02:30.071Z,65.3
2023-01-05T10:04:06.317Z,65.5
2023-01-05T10:05:10.979Z,64.8
2023-01-05T10:06:14.805Z,64.8
2023-01-05T10:07:18.164Z,63.6
2023-01-05T10:08:20.932Z,63.3
2023-01-05T10:09:24.469Z,63.1
2023-01-05T10:10:32.631Z,63.1
2023-01-05T10:11:35.435Z,63.3
2023-01-05T10:12:39.209Z,62.5
2023-01-05T10:13:42.259Z,62.3
2023-01-05T10:14:45.835Z,61.8
2023-01-05T10:15:49.525Z,61.7
2023-01-05T10:17:44.379Z,62
2023-01-05T10:18:49.167Z,61.7
2023-01-05T10:19:52.535Z,61.4
2023-01-05T10:20:56.036Z,61.2
2023-01-05T10:21:59.161Z,60.9
2023-01-05T10:23:02.072Z,60.5
2023-01-05T10:24:05.314Z,61.3
2023-01-05T10:25:08.842Z,61.4
2023-01-05T10:26:11.845Z,62.1
2023-01-05T10:27:27.652Z,62
2023-01-05T10:28:31.051Z,61.8
2023-01-05T10:29:34.438Z,61.8
2023-01-05T10:30:38.113Z,61.5
2023-01-05T10:31:41.908Z,61.3
2023-01-05T10:32:52.233Z,61.8
2023-01-05T10:34:40.906Z,60.9
2023-01-05T10:36:14.462Z,61.2
2023-01-05T10:38:16.138Z,61.6
2023-01-05T10:39:19.625Z,61.2
2023-01-05T10:40:22.877Z,61.1
2023-01-05T10:41:26.259Z,61.6
2023-01-05T10:42:28.979Z,61.6
2023-01-05T10:43:32.087Z,61.7
2023-01-05T10:44:35.835Z,61.3
2023-01-05T10:46:45.928Z,62.1
2023-01-05T10:47:57.105Z,61.5
2023-01-05T10:49:01.109Z,61.3
2023-01-05T10:50:05.398Z,61.1
2023-01-05T10:51:08.491Z,61.1
2023-01-05T10:52:12.520Z,60.6
2023-01-05T10:53:15.623Z,60.3
2023-01-05T10:54:18.743Z,60
2023-01-05T10:55:21.738Z,60.3
2023-01-05T10:56:24.852Z,60.6
2023-01-05T10:57:37.945Z,59.7
2023-01-05T10:58:41.364Z,59.2
2023-01-05T10:59:44.726Z,59.6
2023-01-05T11:00:48.602Z,59.5
2023-01-05T11:01:52.051Z,60.7
2023-01-05T11:02:55.784Z,59.7
2023-01-05T11:04:37.001Z,59.7
2023-01-05T11:05:42.069Z,59.6
2023-01-05T11:06:45.781Z,59.8
2023-01-05T11:07:49.187Z,60.5
2023-01-05T11:08:52.383Z,59.5
2023-01-05T11:09:56.080Z,59.7
2023-01-05T11:10:59.748Z,59.8
2023-01-05T11:12:02.862Z,59.3
2023-01-05T11:13:05.894Z,59.5
2023-01-05T11:14:09.310Z,58.8
2023-01-05T11:15:12.488Z,59.1
2023-01-05T11:16:15.260Z,59.6
2023-01-05T11:17:19.306Z,59.7
2023-01-05T11:18:22.375Z,59.6
2023-01-05T11:19:25.475Z,59.1
2023-01-05T11:20:28.827Z,59.9
2023-01-05T11:21:33.566Z,60.3
2023-01-05T11:22:36.790Z,60.7
2023-01-05T11:23:40.001Z,60
2023-01-05T11:24:43.014Z,60.8
2023-01-05T11:25:46.109Z,61.5
2023-01-05T11:26:48.941Z,62.8
2023-01-05T11:28:06.113Z,62.6
2023-01-05T11:29:10.112Z,62.2
2023-01-05T11:30:13.562Z,62.3
2023-01-05T11:31:17.459Z,63.1
2023-01-05T11:32:20.729Z,63
2023-01-05T11:33:26.772Z,63.7
2023-01-05T11:34:30.427Z,65.1
2023-01-05T11:35:34.052Z,64.9
2023-01-05T11:36:38.475Z,64.9
2023-01-05T11:37:41.480Z,65
2023-01-05T11:38:44.456Z,64.6
2023-01-05T11:39:47.557Z,65.5
2023-01-05T11:40:50.878Z,66.4
2023-01-05T11:41:54.048Z,65.7
2023-01-05T11:42:57.469Z,64.4
2023-01-05T11:44:00.571Z,64.1
2023-01-05T11:45:02.789Z,64.9
2023-01-05T11:46:06.425Z,65.8
2023-01-05T11:47:09.355Z,65.9
2023-01-05T11:48:12.344Z,65.7
2023-01-05T11:49:15.837Z,65.7
2023-01-05T11:50:19.214Z,65.9
2023-01-05T11:51:29.115Z,65.7
2023-01-05T11:52:33.788Z,66.4
2023-01-05T11:53:36.578Z,65.9
2023-01-05T11:54:39.693Z,66.4
2023-01-05T11:55:43.403Z,66.2
2023-01-05T11:56:46.432Z,66.7
2023-01-05T11:58:01.170Z,67
2023-01-05T11:59:05.106Z,67.4
2023-01-05T12:00:08.808Z,67.8
2023-01-05T12:01:12.280Z,67.4
2023-01-05T12:02:16.681Z,67.7
2023-01-05T12:03:20.632Z,67.9
2023-01-05T12:04:24.087Z,67.9
2023-01-05T12:05:27.626Z,68.5
2023-01-05T12:06:31.620Z,68.1
2023-01-05T12:07:35.294Z,67.9
2023-01-05T12:08:38.922Z,67.9
2023-01-05T12:09:42.776Z,68.2
2023-01-05T12:10:45.527Z,67.6
2023-01-05T12:11:48.968Z,67.5
2023-01-05T12:12:52.342Z,68.1
2023-01-05T12:13:56.142Z,68
2023-01-05T12:14:59.862Z,68.9
2023-01-05T12:16:04.295Z,68.8
2023-01-05T12:17:07.725Z,67.9
2023-01-05T12:18:11.446Z,68.1
2023-01-05T12:19:14.879Z,68.6
2023-01-05T12:20:18.381Z,68.9
2023-01-05T12:21:21.451Z,68.6
2023-01-05T12:22:24.391Z,68.9
2023-01-05T12:23:28.794Z,69.1
2023-01-05T12:24:32.673Z,69.1
2023-01-05T12:25:36.067Z,69.4
2023-01-05T12:26:39.184Z,69.3
2023-01-05T12:27:42.311Z,69.8
2023-01-05T12:28:52.499Z,69.7
2023-01-05T12:34:15.549Z,71
2023-01-05T12:35:19.037Z,71
2023-01-05T12:36:21.862Z,71.2
2023-01-05T12:37:25.152Z,71.5
2023-01-05T12:38:29.071Z,71.7
2023-01-05T12:39:33.161Z,71.8
2023-01-05T12:40:37.138Z,72
2023-01-05T12:41:40.533Z,72.1
2023-01-05T12:42:43.731Z,71.8
2023-01-05T12:43:47.389Z,72
2023-01-05T12:44:50.746Z,72
2023-01-05T12:45:53.861Z,72.3
2023-01-05T12:46:57.563Z,72.5
2023-01-05T12:48:01.471Z,73.2
2023-01-05T12:49:04.664Z,71.6
2023-01-05T12:50:07.815Z,71.7
2023-01-05T12:51:10.814Z,71.7
2023-01-05T12:52:14.479Z,71.9
2023-01-05T12:53:17.825Z,72.4
2023-01-05T12:54:20.906Z,72.5
2023-01-05T12:55:24.320Z,72.8
2023-01-05T12:56:28.250Z,72.9
2023-01-05T12:57:31.253Z,72.6
2023-01-05T12:58:34.871Z,72.7
2023-01-05T12:59:38.251Z,72.9
2023-01-05T13:00:41.867Z,73.1
2023-01-05T13:01:45.706Z,73.2
2023-01-05T13:02:49.816Z,72.8
2023-01-05T13:03:52.881Z,72.8
2023-01-05T13:04:57.798Z,72.9
2023-01-05T13:06:01.096Z,72.5
2023-01-05T13:07:04.588Z,72.7
2023-01-05T13:08:07.822Z,72.7
2023-01-05T13:09:10.542Z,73.1
2023-01-05T13:10:13.930Z,72.9
2023-01-05T13:11:17.983Z,73
2023-01-05T13:12:22.135Z,73
2023-01-05T13:13:25.844Z,73.2
2023-01-05T13:14:28.867Z,73.8
2023-01-05T13:15:40.602Z,73.8
2023-01-05T13:16:44.750Z,73.4
2023-01-05T13:17:48.043Z,73.1
2023-01-05T13:18:50.843Z,73
2023-01-05T13:19:54.541Z,73.5
2023-01-05T13:20:57.437Z,73.4
2023-01-05T13:22:00.817Z,73.4
2023-01-05T13:23:04.204Z,73.9
2023-01-05T13:24:07.218Z,74.2
2023-01-05T13:25:10.881Z,73.5
2023-01-05T13:26:14.700Z,73.6
2023-01-05T13:27:17.929Z,73.4
2023-01-05T13:28:21.892Z,73.3
2023-01-05T13:29:24.493Z,73.1
2023-01-05T13:30:27.832Z,73.6
2023-01-05T13:31:31.597Z,74
2023-01-05T13:32:35.936Z,74.1
2023-01-05T13:33:40.038Z,73.7
2023-01-05T13:34:43.380Z,74.2
2023-01-05T13:35:46.505Z,74
2023-01-05T13:36:50.011Z,74.1
2023-01-05T13:37:53.711Z,74.4
2023-01-05T13:38:57.788Z,74.4
2023-01-05T13:40:00.635Z,74.3
2023-01-05T13:41:03.750Z,74
2023-01-05T13:42:07.046Z,73.7
2023-01-05T13:43:11.278Z,73.3
2023-01-05T13:44:15.524Z,73.2
2023-01-05T13:45:18.862Z,73.7
2023-01-05T13:46:22.100Z,73.7
2023-01-05T13:47:30.834Z,73.8
2023-01-05T13:49:05.288Z,73.3
2023-01-05T13:50:08.601Z,73.6
2023-01-05T13:51:12.219Z,73.8
2023-01-05T13:52:14.927Z,73.8
2023-01-05T13:53:18.158Z,73.8
2023-01-05T13:54:21.633Z,73.5
2023-01-05T13:55:27.933Z,73.6
2023-01-05T13:56:31.354Z,73.9
2023-01-05T13:57:34.957Z,73.8
2023-01-05T13:58:38.457Z,73.9
2023-01-05T14:00:11.176Z,74.2
2023-01-05T14:01:15.930Z,74.6
2023-01-05T14:02:19.816Z,74.3
2023-01-05T14:03:22.950Z,74.1
2023-01-05T14:04:25.758Z,74
2023-01-05T14:05:29.423Z,74.4
2023-01-05T14:06:32.783Z,74.3
2023-01-05T14:07:35.257Z,74.4
2023-01-05T14:08:38.901Z,74.7
2023-01-05T14:09:42.626Z,74.7
2023-01-05T14:10:45.906Z,75
2023-01-05T14:11:49.311Z,74.3
2023-01-05T14:12:52.878Z,74.6
2023-01-05T14:13:56.540Z,74.7
2023-01-05T14:15:02.362Z,74.9
2023-01-05T14:16:05.735Z,75
2023-01-05T14:17:09.576Z,75.1
2023-01-05T14:18:12.324Z,75.3
2023-01-05T14:19:15.944Z,75.4
2023-01-05T14:20:19.561Z,75.4
2023-01-05T14:21:22.282Z,75.2
2023-01-05T14:22:25.352Z,75.1